Terminal Aerodrome Forecast
Issued by NWS

Home | Current Version | Previous Version | Text Only | Print | Product List | Glossary On
Versions: 1 2 3 4 5 6 7 8 9 10 11 12 13 14 15 16 17
000
FTUS46 KMTR 292341
TAFMRY
TAF
KMRY 292341Z 3000/3024 29010KT P6SM FEW010
      TEMPO 3002/3004 BKN008
     FM300400 24005KT P6SM OVC008
     FM301700 26007KT P6SM FEW011
     FM302100 29015KT P6SM FEW015=

USA.gov is the U.S. government's official web portal to all federal, state and local government web resources and services.